Overview Statistics Trail Chart Weather Telemetry Raw packets
 

This is the latest recevied weather packets stored in our database for station/object KQ7A. If no packets are shown the sender has not sent any weather packets the latest 10 day(s).

<< 70 71 72 73 74 75 76 >>
Time Temp. Humidity Pressure Rain* Wind** Luminosity Snow
1788182613 10° C 73% 1017.5 hPa 0 mm - 1 W/m² -
1788182313 10.56° C 69% 1017.6 hPa 0 mm - 0 W/m² -
1788182009 10.56° C 69% 1017.6 hPa 0 mm - 0 W/m² -
1788181704 10.56° C 69% 1017.4 hPa 0 mm - 0 W/m² -
1788181400 10.56° C 69% 1017.5 hPa 0 mm - 0 W/m² -
1788181098 10.56° C 69% 1017.4 hPa 0 mm - 0 W/m² -
1788180794 10° C 70% 1017.7 hPa 0 mm - 0 W/m² -
1788180494 10.56° C 70% 1017.6 hPa 0 mm - 0 W/m² -
1788180190 10.56° C 69% 1017.5 hPa 0 mm - 0 W/m² -
1788179890 10.56° C 68% 1017.5 hPa 0 mm - 0 W/m² -
1788179588 10.56° C 68% 1017.6 hPa 0 mm - 0 W/m² -
1788179283 10.56° C 70% 1017.8 hPa 0 mm - 0 W/m² -
1788178978 10.56° C 70% 1017.4 hPa 0 mm - 0 W/m² -
1788178673 10° C 71% 1017.7 hPa 0 mm - 0 W/m² -
1788178370 9.44° C 75% 1017.5 hPa 0 mm - 0 W/m² -
1788178064 10° C 73% 1017.5 hPa 0 mm - 0 W/m² -
1788177759 10.56° C 71% 1017.6 hPa 0 mm - 0 W/m² -
1788177454 10.56° C 71% 1017.8 hPa 0 mm - 0 W/m² -
1788177151 10.56° C 70% 1017.5 hPa 0 mm - 0 W/m² -
1788176850 9.44° C 75% 1017.8 hPa 0 mm - 0 W/m² -
1788176549 8.89° C 76% 1017.8 hPa 0 mm - 0 W/m² -
1788176245 9.44° C 75% 1017.8 hPa 0 mm - 0 W/m² -
1788175939 9.44° C 76% 1017.7 hPa 0 mm - 0 W/m² -
1788175639 10° C 77% 1017.8 hPa 0 mm - 0 W/m² -
1788175334 10° C 74% 1017.7 hPa 0 mm - 0 W/m² -

* Rain latest hour (hover to see other rain measurements)
** Current wind speed in m/s (hover to see current wind gust speed)